Time;durP1;ratioP1;P1;durP2;ratioP2;P2;SDS_P1;SDS_P2;PMS_P1;PMS_P2;Temp;Humidity;BMP_temperature;BMP_pressure;BME280_temperature;BME280_humidity;BME280_pressure;Samples;Min_cycle;Max_cycle;Signal;HPM_P1;HPM_P2
2022/07/10 00:04:28;;;;;;;1.38;0.45;;;;;;;;;;10409305;28;20219;-74
2022/07/10 00:09:30;;;;;;;3.28;0.40;;;;;;;;;;10430246;28;20235;-74
2022/07/10 00:14:31;;;;;;;2.35;0.40;;;;;;;;;;10424614;28;20324;-73
2022/07/10 00:19:32;;;;;;;0.85;0.40;;;;;;;;;;10412817;28;20211;-74
2022/07/10 00:24:33;;;;;;;4.53;0.47;;;;;;;;;;10419223;28;20180;-73
2022/07/10 00:29:34;;;;;;;3.35;0.45;;;;;;;;;;10431299;28;20215;-76
2022/07/10 00:34:35;;;;;;;4.90;0.45;;;;;;;;;;10415123;28;20215;-75
2022/07/10 00:39:36;;;;;;;1.42;0.65;;;;;;;;;;10430977;28;20191;-77
2022/07/10 00:44:37;;;;;;;2.15;0.40;;;;;;;;;;10434085;28;20191;-75
2022/07/10 00:49:39;;;;;;;3.65;0.57;;;;;;;;;;10429380;28;20329;-77
2022/07/10 00:54:42;;;;;;;1.65;0.38;;;;;;;;;;10431280;28;20278;-74
2022/07/10 00:59:44;;;;;;;1.55;0.40;;;;;;;;;;10428121;28;20314;-76
2022/07/10 01:04:45;;;;;;;3.42;0.40;;;;;;;;;;10418990;28;20225;-76
2022/07/10 01:09:46;;;;;;;3.08;0.50;;;;;;;;;;10432118;28;20279;-78
2022/07/10 01:14:48;;;;;;;2.58;0.50;;;;;;;;;;10427561;28;20201;-77
2022/07/10 01:19:49;;;;;;;2.33;0.45;;;;;;;;;;10429578;28;20214;-76
2022/07/10 01:24:50;;;;;;;2.40;0.40;;;;;;;;;;10430337;28;20267;-76
2022/07/10 01:29:51;;;;;;;2.35;0.55;;;;;;;;;;10428015;28;20214;-74
2022/07/10 01:34:52;;;;;;;3.88;0.47;;;;;;;;;;10427896;28;20671;-74
2022/07/10 01:39:53;;;;;;;4.55;0.50;;;;;;;;;;10422998;28;20215;-75
2022/07/10 01:44:54;;;;;;;4.57;0.57;;;;;;;;;;10423104;28;20187;-75
2022/07/10 01:49:55;;;;;;;1.58;0.52;;;;;;;;;;10422482;28;20315;-75
2022/07/10 01:54:56;;;;;;;4.57;0.50;;;;;;;;;;10420248;28;20222;-74
2022/07/10 01:59:57;;;;;;;2.47;0.80;;;;;;;;;;10426744;28;20737;-75
2022/07/10 02:04:58;;;;;;;2.72;0.40;;;;;;;;;;10424531;28;20226;-74
2022/07/10 02:10:00;;;;;;;4.50;0.52;;;;;;;;;;10420912;28;20227;-75
2022/07/10 02:15:01;;;;;;;2.53;0.40;;;;;;;;;;10420334;28;20187;-74
2022/07/10 02:20:03;;;;;;;1.60;0.70;;;;;;;;;;10420123;28;20218;-74
2022/07/10 02:25:04;;;;;;;1.45;0.50;;;;;;;;;;10419621;28;20198;-71
2022/07/10 02:30:06;;;;;;;2.60;0.50;;;;;;;;;;10401658;28;20222;-73
2022/07/10 02:35:07;;;;;;;1.38;0.70;;;;;;;;;;10422710;28;20288;-75
2022/07/10 02:40:08;;;;;;;5.60;1.40;;;;;;;;;;10401516;28;20650;-72
2022/07/10 02:45:12;;;;;;;4.20;0.40;;;;;;;;;;10420951;28;20201;-76
2022/07/10 02:50:13;;;;;;;1.40;0.63;;;;;;;;;;10418448;28;20264;-72
2022/07/10 02:55:14;;;;;;;4.47;0.43;;;;;;;;;;10423520;28;20203;-72
2022/07/10 03:00:15;;;;;;;3.45;0.63;;;;;;;;;;10426262;28;20650;-73
2022/07/10 03:05:17;;;;;;;1.73;0.40;;;;;;;;;;10417052;28;20178;-76
2022/07/10 03:10:18;;;;;;;3.97;0.50;;;;;;;;;;10405547;28;20230;-74
2022/07/10 03:15:19;;;;;;;1.88;0.35;;;;;;;;;;10416384;28;20855;-70
2022/07/10 03:20:20;;;;;;;1.80;0.35;;;;;;;;;;10413165;28;20911;-72
2022/07/10 03:25:21;;;;;;;1.10;0.30;;;;;;;;;;10428224;28;20188;-72
2022/07/10 03:30:22;;;;;;;0.45;0.25;;;;;;;;;;10428341;28;20225;-71
2022/07/10 03:35:25;;;;;;;0.70;0.60;;;;;;;;;;10424882;28;20308;-71
2022/07/10 03:40:26;;;;;;;3.20;0.60;;;;;;;;;;10416503;28;20183;-69
2022/07/10 03:45:27;;;;;;;4.75;0.47;;;;;;;;;;10424632;28;20193;-69
2022/07/10 03:50:28;;;;;;;2.03;0.73;;;;;;;;;;10424020;28;20230;-70
2022/07/10 03:55:29;;;;;;;1.23;0.50;;;;;;;;;;10406750;28;20622;-69
2022/07/10 04:00:32;;;;;;;1.13;0.90;;;;;;;;;;10404346;28;20198;-70
2022/07/10 04:05:33;;;;;;;2.05;0.70;;;;;;;;;;10430329;28;20675;-71
2022/07/10 04:10:34;;;;;;;4.18;0.63;;;;;;;;;;10425513;28;20214;-71
2022/07/10 04:15:35;;;;;;;2.63;1.30;;;;;;;;;;10425250;28;20198;-69
2022/07/10 04:20:36;;;;;;;1.15;0.40;;;;;;;;;;10424364;28;20298;-70
2022/07/10 04:25:37;;;;;;;1.08;0.77;;;;;;;;;;10422963;28;20663;-70
2022/07/10 04:30:39;;;;;;;2.58;0.70;;;;;;;;;;10424458;28;20223;-70
2022/07/10 04:35:40;;;;;;;2.90;0.88;;;;;;;;;;10421682;28;20192;-70
2022/07/10 04:40:41;;;;;;;1.10;0.80;;;;;;;;;;10424889;28;20183;-70
2022/07/10 04:45:42;;;;;;;6.20;0.85;;;;;;;;;;10422897;28;20187;-71
2022/07/10 04:50:43;;;;;;;3.97;0.75;;;;;;;;;;10419765;28;20226;-71
2022/07/10 04:55:44;;;;;;;5.25;0.90;;;;;;;;;;10422124;28;20224;-71
2022/07/10 05:00:45;;;;;;;6.07;1.40;;;;;;;;;;10421955;28;20690;-71
2022/07/10 05:05:46;;;;;;;4.50;0.93;;;;;;;;;;10403356;28;20265;-71
2022/07/10 05:10:47;;;;;;;8.23;0.95;;;;;;;;;;10422008;28;20316;-72
2022/07/10 05:15:49;;;;;;;3.83;0.70;;;;;;;;;;10416762;28;20219;-71
2022/07/10 05:20:50;;;;;;;3.22;0.95;;;;;;;;;;10420899;28;20199;-71
2022/07/10 05:25:52;;;;;;;4.28;0.80;;;;;;;;;;10422012;28;20188;-71
2022/07/10 05:30:53;;;;;;;2.30;0.60;;;;;;;;;;10408163;28;20229;-69
2022/07/10 05:35:54;;;;;;;1.10;0.55;;;;;;;;;;10418193;28;20213;-72
2022/07/10 05:40:55;;;;;;;1.48;0.47;;;;;;;;;;10421269;28;20219;-71
2022/07/10 05:45:56;;;;;;;3.58;1.05;;;;;;;;;;10422873;28;20187;-70
2022/07/10 05:50:58;;;;;;;2.90;0.55;;;;;;;;;;10415900;28;20732;-72
2022/07/10 05:56:02;;;;;;;2.30;0.60;;;;;;;;;;10419122;28;20199;-71
2022/07/10 06:01:03;;;;;;;1.65;0.60;;;;;;;;;;10404798;28;20222;-72
2022/07/10 06:06:04;;;;;;;2.85;1.02;;;;;;;;;;10424825;28;20199;-72
2022/07/10 06:11:05;;;;;;;3.47;0.80;;;;;;;;;;10421674;28;20722;-72
2022/07/10 06:16:06;;;;;;;2.20;0.50;;;;;;;;;;10419960;28;20195;-69
2022/07/10 06:21:08;;;;;;;2.50;0.70;;;;;;;;;;10419860;28;20210;-72
2022/07/10 06:26:09;;;;;;;3.40;0.80;;;;;;;;;;10421204;28;20197;-72
2022/07/10 06:31:10;;;;;;;6.90;1.10;;;;;;;;;;10401927;28;20230;-72
2022/07/10 06:36:12;;;;;;;2.92;0.73;;;;;;;;;;10402819;28;20687;-73
2022/07/10 06:41:13;;;;;;;5.05;0.90;;;;;;;;;;10421448;28;20191;-71
2022/07/10 06:46:14;;;;;;;1.30;0.60;;;;;;;;;;10420047;28;20194;-73
2022/07/10 06:51:15;;;;;;;3.53;1.00;;;;;;;;;;10419754;28;20210;-74
2022/07/10 06:56:16;;;;;;;4.53;0.98;;;;;;;;;;10420982;28;20183;-73
2022/07/10 07:01:17;;;;;;;3.53;0.93;;;;;;;;;;10418249;28;20225;-70
2022/07/10 07:06:18;;;;;;;3.92;1.05;;;;;;;;;;10394743;28;20592;-73
2022/07/10 07:11:19;;;;;;;3.50;0.70;;;;;;;;;;10399310;28;20229;-73
2022/07/10 07:16:27;;;;;;;3.80;1.00;;;;;;;;;;10420216;28;20187;-71
2022/07/10 07:26:48;;;;;;;1.45;0.98;;;;;;;;;;10416384;28;20780;-72
2022/07/10 07:31:49;;;;;;;6.25;1.05;;;;;;;;;;10423801;28;20222;-73
2022/07/10 07:36:50;;;;;;;9.18;0.98;;;;;;;;;;10418085;28;20657;-71
2022/07/10 07:41:51;;;;;;;3.38;1.08;;;;;;;;;;10418490;28;20322;-72
2022/07/10 07:46:52;;;;;;;5.40;1.15;;;;;;;;;;10413785;28;20642;-72
2022/07/10 07:51:53;;;;;;;6.43;1.63;;;;;;;;;;10418474;28;20218;-72
2022/07/10 07:56:54;;;;;;;5.82;1.30;;;;;;;;;;10419758;28;20271;-72
2022/07/10 08:01:55;;;;;;;5.90;1.10;;;;;;;;;;10417920;28;20250;-70
2022/07/10 08:06:56;;;;;;;8.52;1.05;;;;;;;;;;10419655;28;20257;-71
2022/07/10 08:11:58;;;;;;;4.43;1.88;;;;;;;;;;10430116;28;20212;-70
2022/07/10 08:16:59;;;;;;;4.90;1.17;;;;;;;;;;10406812;28;20563;-70
2022/07/10 08:22:00;;;;;;;7.13;1.23;;;;;;;;;;10428682;28;20851;-71
2022/07/10 08:27:01;;;;;;;6.85;1.85;;;;;;;;;;10424555;28;20191;-72
2022/07/10 08:32:03;;;;;;;5.28;1.17;;;;;;;;;;10426473;28;20250;-71
2022/07/10 08:37:04;;;;;;;6.05;0.80;;;;;;;;;;10424071;28;20192;-74
2022/07/10 08:42:06;;;;;;;3.17;0.80;;;;;;;;;;10428011;28;20304;-75
2022/07/10 08:47:08;;;;;;;5.78;1.20;;;;;;;;;;10423992;28;20242;-74
2022/07/10 08:52:11;;;;;;;9.32;1.15;;;;;;;;;;10420879;28;20277;-73
2022/07/10 08:57:13;;;;;;;5.00;1.00;;;;;;;;;;10399426;28;20183;-71
2022/07/10 09:02:14;;;;;;;8.63;0.90;;;;;;;;;;10425935;28;20273;-74
2022/07/10 09:07:17;;;;;;;3.38;0.70;;;;;;;;;;10425535;28;20210;-73
2022/07/10 09:12:18;;;;;;;4.97;1.17;;;;;;;;;;10422482;28;20226;-74
2022/07/10 09:17:19;;;;;;;5.22;0.70;;;;;;;;;;10419682;28;20210;-73
2022/07/10 09:22:22;;;;;;;3.92;0.80;;;;;;;;;;10420406;28;20191;-72
2022/07/10 09:27:23;;;;;;;4.00;0.93;;;;;;;;;;10426659;28;20195;-74
2022/07/10 09:32:26;;;;;;;3.97;0.90;;;;;;;;;;10423957;28;20218;-72
2022/07/10 09:37:28;;;;;;;4.85;0.85;;;;;;;;;;10424558;28;20196;-72
2022/07/10 09:42:32;;;;;;;6.10;1.33;;;;;;;;;;10404871;28;20589;-71
2022/07/10 09:47:33;;;;;;;5.00;0.85;;;;;;;;;;10403849;28;20207;-73
2022/07/10 09:52:34;;;;;;;1.35;0.90;;;;;;;;;;10427947;28;20214;-74
2022/07/10 09:57:35;;;;;;;4.97;0.90;;;;;;;;;;10425221;28;20187;-73
2022/07/10 10:02:37;;;;;;;2.17;0.85;;;;;;;;;;10420426;28;20241;-72
2022/07/10 10:07:39;;;;;;;5.68;0.80;;;;;;;;;;10419920;28;20219;-71
2022/07/10 10:12:45;;;;;;;4.82;0.98;;;;;;;;;;10418591;28;20314;-71
2022/07/10 10:17:46;;;;;;;2.45;1.05;;;;;;;;;;10417088;28;20265;-68
2022/07/10 10:22:48;;;;;;;0.95;0.90;;;;;;;;;;10420883;28;20328;-71
2022/07/10 10:27:50;;;;;;;4.15;0.90;;;;;;;;;;10422780;28;20192;-71
2022/07/10 10:32:51;;;;;;;3.90;0.80;;;;;;;;;;10419030;28;20214;-74
2022/07/10 10:37:52;;;;;;;4.57;1.17;;;;;;;;;;10421615;28;20187;-72
2022/07/10 10:42:55;;;;;;;5.75;1.02;;;;;;;;;;10417123;28;20194;-71
2022/07/10 10:47:59;;;;;;;5.70;1.30;;;;;;;;;;10421634;28;20216;-72
2022/07/10 10:53:01;;;;;;;4.93;1.15;;;;;;;;;;10423166;28;20263;-73
2022/07/10 10:58:16;;;;;;;8.10;1.10;;;;;;;;;;10418276;28;20195;-73
2022/07/10 11:03:18;;;;;;;7.13;1.10;;;;;;;;;;10401048;28;20269;-71
2022/07/10 11:08:38;;;;;;;3.30;1.17;;;;;;;;;;10417890;28;20241;-72
2022/07/10 11:13:40;;;;;;;2.90;0.82;;;;;;;;;;10415268;28;20223;-70
2022/07/10 11:18:42;;;;;;;4.88;1.00;;;;;;;;;;10417902;28;20210;-71
2022/07/10 11:24:00;;;;;;;4.35;1.23;;;;;;;;;;10414448;28;20318;-71
2022/07/10 11:29:05;;;;;;;5.55;0.88;;;;;;;;;;10418480;28;20252;-71
2022/07/10 11:34:06;;;;;;;1.67;1.02;;;;;;;;;;10417585;28;20207;-71
2022/07/10 11:39:07;;;;;;;1.17;0.60;;;;;;;;;;10415482;28;20202;-69
2022/07/10 11:44:16;;;;;;;4.32;1.08;;;;;;;;;;10421915;28;20223;-72
2022/07/10 11:49:17;;;;;;;4.18;0.77;;;;;;;;;;10423792;28;20284;-71
2022/07/10 11:54:18;;;;;;;1.85;1.10;;;;;;;;;;10421900;28;20254;-70
2022/07/10 11:59:26;;;;;;;4.88;0.80;;;;;;;;;;10431397;28;20191;-70
2022/07/10 12:04:30;;;;;;;4.70;0.88;;;;;;;;;;10427374;28;20222;-71
2022/07/10 12:09:31;;;;;;;2.90;0.80;;;;;;;;;;10426172;28;20219;-68
2022/07/10 12:14:32;;;;;;;3.50;0.82;;;;;;;;;;10423917;28;20183;-70
2022/07/10 12:19:37;;;;;;;2.05;0.80;;;;;;;;;;10404567;28;20203;-71
2022/07/10 12:24:39;;;;;;;3.75;0.75;;;;;;;;;;10420594;28;20324;-72
2022/07/10 12:29:40;;;;;;;6.43;0.90;;;;;;;;;;10421332;28;20211;-69
2022/07/10 12:34:53;;;;;;;1.10;0.52;;;;;;;;;;10414916;28;20211;-68
2022/07/10 12:39:56;;;;;;;2.83;0.57;;;;;;;;;;10421969;28;20683;-71
2022/07/10 12:45:17;;;;;;;5.00;0.82;;;;;;;;;;10416501;28;20195;-71
2022/07/10 12:50:20;;;;;;;5.60;1.17;;;;;;;;;;10424171;28;21101;-70
2022/07/10 12:55:21;;;;;;;2.22;0.60;;;;;;;;;;10423223;28;20302;-70
2022/07/10 13:00:23;;;;;;;6.07;0.85;;;;;;;;;;10417219;28;20240;-72
2022/07/10 13:05:28;;;;;;;6.78;1.25;;;;;;;;;;10408160;28;20194;-72
2022/07/10 13:10:29;;;;;;;3.35;0.60;;;;;;;;;;10425210;28;21164;-72
2022/07/10 13:15:31;;;;;;;2.08;0.75;;;;;;;;;;10427303;28;20187;-70
2022/07/10 13:20:32;;;;;;;3.58;0.77;;;;;;;;;;10426924;28;20214;-72
2022/07/10 13:25:33;;;;;;;3.63;1.00;;;;;;;;;;10426684;28;20195;-72
2022/07/10 13:30:35;;;;;;;1.42;0.70;;;;;;;;;;10427896;28;20729;-70
2022/07/10 13:35:36;;;;;;;1.02;0.60;;;;;;;;;;10424439;28;20187;-69
2022/07/10 13:40:38;;;;;;;4.47;1.20;;;;;;;;;;10406599;28;20206;-71
2022/07/10 13:45:47;;;;;;;2.60;0.70;;;;;;;;;;10423370;28;20193;-72
2022/07/10 13:50:48;;;;;;;2.13;0.70;;;;;;;;;;10423657;28;20277;-70
2022/07/10 13:55:49;;;;;;;2.10;0.80;;;;;;;;;;10422063;28;20262;-69
2022/07/10 14:00:50;;;;;;;4.25;0.60;;;;;;;;;;10421636;28;20535;-70
2022/07/10 14:05:51;;;;;;;2.78;0.80;;;;;;;;;;10421064;28;20569;-70
2022/07/10 14:10:52;;;;;;;2.35;0.77;;;;;;;;;;10404491;28;20229;-71
2022/07/10 14:15:54;;;;;;;5.88;0.70;;;;;;;;;;10424180;28;20311;-71
2022/07/10 14:21:04;;;;;;;2.95;0.65;;;;;;;;;;10424551;28;20833;-72
2022/07/10 14:26:06;;;;;;;4.57;0.90;;;;;;;;;;10423379;28;20291;-70
2022/07/10 14:31:07;;;;;;;1.95;0.63;;;;;;;;;;10423351;28;20233;-69
2022/07/10 14:36:09;;;;;;;0.95;0.50;;;;;;;;;;10423123;28;20192;-71
2022/07/10 14:41:10;;;;;;;2.17;0.70;;;;;;;;;;10422783;28;20202;-70
2022/07/10 14:46:11;;;;;;;2.45;0.63;;;;;;;;;;10403597;28;20881;-69
2022/07/10 14:51:12;;;;;;;5.68;1.08;;;;;;;;;;10424431;28;20215;-71
2022/07/10 14:56:16;;;;;;;5.07;0.70;;;;;;;;;;10424339;28;21160;-71
2022/07/10 15:01:18;;;;;;;3.33;0.40;;;;;;;;;;10415064;28;20603;-70
2022/07/10 15:06:19;;;;;;;3.17;0.73;;;;;;;;;;10423164;28;20394;-71
2022/07/10 15:11:22;;;;;;;1.05;0.60;;;;;;;;;;10421888;28;20223;-69
2022/07/10 15:16:23;;;;;;;3.50;0.60;;;;;;;;;;10420165;28;21131;-70
2022/07/10 15:21:24;;;;;;;1.20;0.50;;;;;;;;;;10421738;28;20366;-71
2022/07/10 15:26:25;;;;;;;2.17;0.60;;;;;;;;;;10420370;28;20217;-69
2022/07/10 15:31:27;;;;;;;2.40;0.60;;;;;;;;;;10421242;28;20313;-71
2022/07/10 15:36:28;;;;;;;2.78;0.68;;;;;;;;;;10421049;28;20267;-71
2022/07/10 15:41:29;;;;;;;1.92;0.60;;;;;;;;;;10417604;28;20187;-69
2022/07/10 15:46:30;;;;;;;4.18;0.65;;;;;;;;;;10416786;28;20190;-68
2022/07/10 15:51:31;;;;;;;2.42;0.65;;;;;;;;;;10420472;28;20237;-70
2022/07/10 15:56:32;;;;;;;2.55;0.60;;;;;;;;;;10415336;28;20191;-72
2022/07/10 16:01:33;;;;;;;2.25;0.70;;;;;;;;;;10419091;28;20222;-69
2022/07/10 16:06:34;;;;;;;1.85;0.60;;;;;;;;;;10420643;28;20278;-71
2022/07/10 16:11:35;;;;;;;1.88;0.70;;;;;;;;;;10382505;28;20552;-69
2022/07/10 16:16:37;;;;;;;4.25;0.55;;;;;;;;;;10415607;28;20428;-70
2022/07/10 16:21:38;;;;;;;1.15;0.52;;;;;;;;;;10414634;28;20356;-70
2022/07/10 16:26:39;;;;;;;4.22;0.68;;;;;;;;;;10417119;28;20198;-71
2022/07/10 16:31:41;;;;;;;3.28;0.60;;;;;;;;;;10424063;28;20337;-71
2022/07/10 16:36:42;;;;;;;1.08;0.60;;;;;;;;;;10426819;28;20191;-69
2022/07/10 16:41:43;;;;;;;1.77;0.40;;;;;;;;;;10424111;28;20210;-69
2022/07/10 16:46:44;;;;;;;1.75;0.60;;;;;;;;;;10414462;28;20194;-70
2022/07/10 16:51:45;;;;;;;3.60;0.70;;;;;;;;;;10422737;28;20635;-71
2022/07/10 16:56:46;;;;;;;1.60;0.50;;;;;;;;;;10420223;28;20191;-70
2022/07/10 17:01:47;;;;;;;3.55;0.50;;;;;;;;;;10400063;28;20226;-71
2022/07/10 17:06:48;;;;;;;2.85;0.90;;;;;;;;;;10422436;28;20207;-70
2022/07/10 17:11:49;;;;;;;4.72;0.68;;;;;;;;;;10420607;28;20215;-71
2022/07/10 17:16:51;;;;;;;2.92;0.80;;;;;;;;;;10413921;28;20240;-70
2022/07/10 17:21:52;;;;;;;1.27;0.70;;;;;;;;;;10405003;28;20199;-70
2022/07/10 17:26:53;;;;;;;3.72;0.60;;;;;;;;;;10417434;28;20190;-69
2022/07/10 17:31:54;;;;;;;5.75;0.88;;;;;;;;;;10420747;28;20227;-69
2022/07/10 17:36:55;;;;;;;4.60;0.90;;;;;;;;;;10423695;28;20636;-69
2022/07/10 17:41:56;;;;;;;1.10;0.60;;;;;;;;;;10421899;28;20230;-67
2022/07/10 17:46:58;;;;;;;4.05;0.75;;;;;;;;;;10423773;28;20619;-68
2022/07/10 17:52:00;;;;;;;4.65;0.60;;;;;;;;;;10425237;28;20225;-70
2022/07/10 17:57:01;;;;;;;4.88;0.95;;;;;;;;;;10423327;28;20257;-72
2022/07/10 18:02:02;;;;;;;4.60;0.80;;;;;;;;;;10421112;28;20215;-72
2022/07/10 18:07:04;;;;;;;3.42;0.85;;;;;;;;;;10424607;28;20238;-70
2022/07/10 18:12:05;;;;;;;3.90;0.88;;;;;;;;;;10423055;28;20253;-74
2022/07/10 18:17:06;;;;;;;5.38;1.10;;;;;;;;;;10423189;28;20259;-71
2022/07/10 18:22:08;;;;;;;5.97;1.02;;;;;;;;;;10423529;28;20221;-72
2022/07/10 18:27:09;;;;;;;4.70;0.70;;;;;;;;;;10416912;28;20277;-72
2022/07/10 18:32:10;;;;;;;7.28;0.73;;;;;;;;;;10419806;28;20227;-76
2022/07/10 18:37:11;;;;;;;5.95;0.93;;;;;;;;;;10415969;28;20643;-73
2022/07/10 18:42:12;;;;;;;3.42;1.23;;;;;;;;;;10422267;28;20191;-76
2022/07/10 18:47:13;;;;;;;6.78;0.80;;;;;;;;;;10417503;28;20597;-74
2022/07/10 18:52:15;;;;;;;2.05;0.60;;;;;;;;;;10415999;28;20728;-72
2022/07/10 18:57:16;;;;;;;3.05;0.90;;;;;;;;;;10420409;28;20654;-72
2022/07/10 19:02:17;;;;;;;4.18;0.90;;;;;;;;;;10417897;28;20219;-73
2022/07/10 19:07:18;;;;;;;1.85;0.70;;;;;;;;;;10409659;28;20222;-73
2022/07/10 19:12:19;;;;;;;4.00;1.15;;;;;;;;;;10420530;28;20617;-74
2022/07/10 19:17:21;;;;;;;2.58;0.80;;;;;;;;;;10416671;28;20265;-72
2022/07/10 19:22:22;;;;;;;4.88;0.80;;;;;;;;;;10417250;28;20198;-76
2022/07/10 19:27:23;;;;;;;5.07;1.13;;;;;;;;;;10416820;28;20199;-73
2022/07/10 19:32:24;;;;;;;1.77;0.60;;;;;;;;;;10414663;28;20743;-69
2022/07/10 19:37:25;;;;;;;5.53;0.80;;;;;;;;;;10414536;28;20215;-71
2022/07/10 19:42:26;;;;;;;4.95;0.95;;;;;;;;;;10413363;28;20198;-70
2022/07/10 19:47:27;;;;;;;3.58;0.95;;;;;;;;;;10417995;28;20922;-71
2022/07/10 19:52:28;;;;;;;1.13;0.60;;;;;;;;;;10415209;28;20297;-73
2022/07/10 19:57:29;;;;;;;2.90;0.90;;;;;;;;;;10418420;28;20325;-73
2022/07/10 20:02:30;;;;;;;2.78;0.75;;;;;;;;;;10416584;28;20211;-74
2022/07/10 20:07:31;;;;;;;2.13;0.60;;;;;;;;;;10376473;28;1410229;-72
2022/07/10 20:12:33;;;;;;;5.28;0.90;;;;;;;;;;10424641;28;20534;-72
2022/07/10 20:17:34;;;;;;;5.15;0.73;;;;;;;;;;10430000;28;20215;-74
2022/07/10 20:22:36;;;;;;;4.80;1.02;;;;;;;;;;10426067;28;20187;-73
2022/07/10 20:27:39;;;;;;;6.47;0.88;;;;;;;;;;10429328;28;20976;-74
2022/07/10 20:32:40;;;;;;;7.68;0.95;;;;;;;;;;10428242;28;20219;-74
2022/07/10 20:37:42;;;;;;;10.15;1.17;;;;;;;;;;10413084;28;20702;-74
2022/07/10 20:42:43;;;;;;;5.97;0.93;;;;;;;;;;10434932;28;20215;-73
2022/07/10 20:47:44;;;;;;;5.35;0.80;;;;;;;;;;10416688;28;20302;-74
2022/07/10 20:52:45;;;;;;;4.30;0.70;;;;;;;;;;10433285;28;20686;-75
2022/07/10 20:57:46;;;;;;;7.03;1.23;;;;;;;;;;10439288;28;20195;-75
2022/07/10 21:02:47;;;;;;;3.08;0.90;;;;;;;;;;10430517;28;20218;-74
2022/07/10 21:07:49;;;;;;;2.33;0.73;;;;;;;;;;10427429;28;20224;-73
2022/07/10 21:12:50;;;;;;;4.63;1.23;;;;;;;;;;10421023;28;20852;-73
2022/07/10 21:17:51;;;;;;;4.38;0.98;;;;;;;;;;10430735;28;20206;-74
2022/07/10 21:22:52;;;;;;;4.85;0.70;;;;;;;;;;10421299;28;20716;-74
2022/07/10 21:27:53;;;;;;;5.53;1.10;;;;;;;;;;10430319;28;20656;-75
2022/07/10 21:32:54;;;;;;;5.88;1.02;;;;;;;;;;10429490;28;20227;-74
2022/07/10 21:37:55;;;;;;;1.75;0.80;;;;;;;;;;10429944;28;20663;-74
2022/07/10 21:42:56;;;;;;;3.67;0.90;;;;;;;;;;10430971;28;20193;-74
2022/07/10 21:47:57;;;;;;;1.92;0.77;;;;;;;;;;10431494;28;20748;-74
2022/07/10 21:52:58;;;;;;;5.72;0.70;;;;;;;;;;10431940;28;20252;-75
2022/07/10 21:57:59;;;;;;;2.25;1.05;;;;;;;;;;10431793;28;20727;-75
2022/07/10 22:03:01;;;;;;;5.68;0.85;;;;;;;;;;10426485;28;20303;-74
2022/07/10 22:08:02;;;;;;;3.80;1.00;;;;;;;;;;10423293;28;20227;-74
2022/07/10 22:13:03;;;;;;;5.93;1.30;;;;;;;;;;10424414;28;21148;-75
2022/07/10 22:18:04;;;;;;;7.82;1.00;;;;;;;;;;10419547;28;20581;-74
2022/07/10 22:23:05;;;;;;;2.90;1.02;;;;;;;;;;10428622;28;20205;-74
2022/07/10 22:28:06;;;;;;;3.33;1.05;;;;;;;;;;10430742;28;20627;-75
2022/07/10 22:33:07;;;;;;;3.72;0.90;;;;;;;;;;10412212;28;20227;-76
2022/07/10 22:38:09;;;;;;;6.78;0.95;;;;;;;;;;10410912;28;20194;-75
2022/07/10 22:43:10;;;;;;;5.05;0.93;;;;;;;;;;10433404;28;20194;-75
2022/07/10 22:48:11;;;;;;;4.70;0.80;;;;;;;;;;10434783;28;20246;-76
2022/07/10 22:53:12;;;;;;;4.13;0.85;;;;;;;;;;10432227;28;20219;-75
2022/07/10 22:58:13;;;;;;;2.95;0.73;;;;;;;;;;10432850;28;20222;-76
2022/07/10 23:03:14;;;;;;;1.85;0.75;;;;;;;;;;10429853;28;20210;-75
2022/07/10 23:08:15;;;;;;;4.43;0.98;;;;;;;;;;10433104;28;20663;-76
2022/07/10 23:13:16;;;;;;;6.38;0.90;;;;;;;;;;10431483;28;20260;-73
2022/07/10 23:18:17;;;;;;;2.65;0.70;;;;;;;;;;10429680;28;20218;-74
2022/07/10 23:23:18;;;;;;;4.88;0.93;;;;;;;;;;10416839;28;20312;-75
2022/07/10 23:28:19;;;;;;;2.63;0.80;;;;;;;;;;10418509;28;20187;-74
2022/07/10 23:33:21;;;;;;;1.50;0.73;;;;;;;;;;10428238;28;20211;-75
2022/07/10 23:38:22;;;;;;;3.05;0.93;;;;;;;;;;10431681;28;20194;-75
2022/07/10 23:43:23;;;;;;;2.88;0.85;;;;;;;;;;10421716;28;20200;-74
2022/07/10 23:53:43;;;;;;;2.40;0.80;;;;;;;;;;10435773;28;20214;-75
2022/07/10 23:58:44;;;;;;;4.03;0.80;;;;;;;;;;10432026;28;20274;-75
